Time;durP1;ratioP1;P1;durP2;ratioP2;P2;SDS_P1;SDS_P2;PMS_P1;PMS_P2;Temp;Humidity;BMP_temperature;BMP_pressure;BME280_temperature;BME280_humidity;BME280_pressure;Samples;Min_cycle;Max_cycle;Signal;HPM_P1;HPM_P2
2020/12/22 00:01:54;;;;;;;10.27;7.77;;;7.20;99.90;;;;;;4974737;28;20211;-48
2020/12/22 00:04:20;;;;;;;13.17;8.00;;;7.20;99.90;;;;;;4969346;28;20220;-47
2020/12/22 00:06:46;;;;;;;7.80;6.93;;;7.20;99.90;;;;;;4969070;28;20186;-50
2020/12/22 00:09:11;;;;;;;12.00;7.97;;;7.20;99.90;;;;;;4959219;28;20663;-48
2020/12/22 00:11:37;;;;;;;12.73;8.10;;;7.20;99.90;;;;;;4970977;28;20239;-49
2020/12/22 00:14:02;;;;;;;8.83;7.50;;;7.20;99.90;;;;;;4968696;28;20751;-49
2020/12/22 00:16:36;;;;;;;11.73;8.17;;;7.20;99.90;;;;;;4974232;28;20178;-50
2020/12/22 00:19:02;;;;;;;8.27;7.33;;;7.20;99.90;;;;;;4985136;28;20260;-51
2020/12/22 00:21:30;;;;;;;11.47;7.03;;;7.20;99.90;;;;;;4965610;28;20206;-53
2020/12/22 00:23:56;;;;;;;7.97;7.17;;;7.20;99.90;;;;;;4977938;28;20206;-44
2020/12/22 00:26:21;;;;;;;10.53;7.93;;;7.20;99.90;;;;;;4955209;28;20196;-53
2020/12/22 00:28:46;;;;;;;11.00;7.80;;;7.20;99.90;;;;;;4982017;28;20181;-49
2020/12/22 00:31:12;;;;;;;8.63;6.80;;;7.20;99.90;;;;;;4968125;28;20614;-44
2020/12/22 00:33:37;;;;;;;9.50;7.97;;;7.30;99.90;;;;;;4975320;28;20178;-51
2020/12/22 00:36:07;;;;;;;10.60;7.47;;;7.30;99.90;;;;;;4979647;28;20193;-50
2020/12/22 00:38:33;;;;;;;11.50;7.50;;;7.30;99.90;;;;;;4972912;28;20185;-48
2020/12/22 00:40:58;;;;;;;10.80;7.30;;;7.30;99.90;;;;;;4963973;28;20198;-50
2020/12/22 00:43:23;;;;;;;9.30;7.67;;;7.30;99.90;;;;;;4971236;28;20225;-45
2020/12/22 00:45:49;;;;;;;9.57;7.17;;;7.30;99.90;;;;;;4979308;28;20276;-46
2020/12/22 00:48:14;;;;;;;10.50;8.37;;;7.30;99.90;;;;;;4977540;28;20186;-46
2020/12/22 00:50:40;;;;;;;11.00;6.53;;;7.30;99.90;;;;;;4979935;28;20193;-42
2020/12/22 00:53:05;;;;;;;7.87;7.10;;;7.40;99.90;;;;;;4964342;28;20213;-52
2020/12/22 00:55:31;;;;;;;8.03;6.63;;;7.40;99.90;;;;;;4960423;28;22563;-51
2020/12/22 00:57:56;;;;;;;8.10;6.80;;;7.40;99.90;;;;;;4975658;28;20189;-44
2020/12/22 01:00:22;;;;;;;7.83;5.80;;;7.40;99.90;;;;;;4980172;28;20226;-50
2020/12/22 01:02:47;;;;;;;8.27;7.10;;;7.40;99.90;;;;;;4985538;28;20573;-49
2020/12/22 01:05:13;;;;;;;8.00;6.73;;;7.40;99.90;;;;;;4970604;28;20290;-46
2020/12/22 01:07:38;;;;;;;6.90;6.20;;;7.40;99.90;;;;;;4978626;28;20193;-48
2020/12/22 01:10:04;;;;;;;6.77;6.17;;;7.40;99.90;;;;;;4978315;28;20210;-48
2020/12/22 01:12:30;;;;;;;6.97;6.27;;;7.40;99.90;;;;;;4969062;28;20210;-51
2020/12/22 01:14:55;;;;;;;9.67;7.37;;;7.40;99.90;;;;;;4987732;28;20181;-50
2020/12/22 01:17:21;;;;;;;7.53;6.57;;;7.50;99.90;;;;;;4975334;28;20182;-48
2020/12/22 01:19:47;;;;;;;8.80;6.83;;;7.50;99.90;;;;;;4979387;28;20189;-53
2020/12/22 01:22:12;;;;;;;7.30;6.50;;;7.50;99.90;;;;;;4978870;28;20228;-47
2020/12/22 01:24:38;;;;;;;7.33;6.63;;;7.50;99.90;;;;;;4972487;28;20789;-46
2020/12/22 01:27:03;;;;;;;6.80;5.97;;;7.50;99.90;;;;;;4967032;28;20208;-44
2020/12/22 01:29:29;;;;;;;6.90;6.23;;;7.50;99.90;;;;;;4979997;28;20201;-47
2020/12/22 01:31:55;;;;;;;8.37;6.03;;;7.60;99.90;;;;;;4986593;28;20205;-50
2020/12/22 01:34:20;;;;;;;7.30;5.77;;;7.50;99.90;;;;;;4962028;28;20190;-44
2020/12/22 01:36:46;;;;;;;6.70;6.00;;;7.60;99.90;;;;;;4974283;28;20281;-46
2020/12/22 01:39:12;;;;;;;7.87;6.53;;;7.60;99.90;;;;;;4972126;28;20181;-49
2020/12/22 01:41:37;;;;;;;7.00;6.07;;;7.60;99.90;;;;;;4970179;28;20809;-51
2020/12/22 01:44:10;;;;;;;6.70;5.50;;;7.60;99.90;;;;;;4966119;28;20204;-45
2020/12/22 01:46:40;;;;;;;7.23;6.03;;;7.70;99.90;;;;;;4969019;28;20184;-47
2020/12/22 01:49:15;;;;;;;9.17;6.07;;;7.70;99.90;;;;;;4977862;28;20231;-45
2020/12/22 01:51:46;;;;;;;9.17;5.83;;;7.70;99.90;;;;;;4969954;28;20212;-48
2020/12/22 01:54:13;;;;;;;6.60;5.90;;;7.70;99.90;;;;;;4967144;28;20182;-44
2020/12/22 01:56:39;;;;;;;6.50;5.90;;;7.70;99.90;;;;;;4981490;28;20197;-51
2020/12/22 01:59:05;;;;;;;7.07;5.17;;;7.70;99.90;;;;;;4961397;28;20200;-47
2020/12/22 02:01:32;;;;;;;6.03;5.37;;;7.70;99.90;;;;;;4975234;28;20210;-48
2020/12/22 02:03:59;;;;;;;8.50;5.30;;;7.70;99.90;;;;;;4985392;28;20247;-43
2020/12/22 02:06:25;;;;;;;6.07;5.17;;;7.70;99.90;;;;;;4966259;28;20939;-43
2020/12/22 02:08:50;;;;;;;6.40;5.50;;;7.80;99.90;;;;;;4969766;28;20232;-43
2020/12/22 02:11:26;;;;;;;6.47;5.40;;;7.80;99.90;;;;;;4967111;28;20251;-51
2020/12/22 02:13:52;;;;;;;6.20;5.37;;;7.80;99.90;;;;;;4956361;28;20217;-43
2020/12/22 02:16:18;;;;;;;8.00;5.17;;;7.80;99.90;;;;;;4972951;28;20637;-52
2020/12/22 02:18:45;;;;;;;6.80;5.90;;;7.80;99.90;;;;;;4984878;28;20185;-44
2020/12/22 02:21:10;;;;;;;5.57;5.03;;;7.80;99.90;;;;;;4984508;28;20252;-52
2020/12/22 02:23:36;;;;;;;6.77;5.13;;;7.80;99.90;;;;;;4976130;28;20956;-43
2020/12/22 02:26:01;;;;;;;6.10;5.17;;;7.80;99.90;;;;;;4971365;28;20569;-53
2020/12/22 02:28:27;;;;;;;9.67;5.50;;;7.90;99.90;;;;;;4979074;28;20166;-49
2020/12/22 02:30:52;;;;;;;7.33;5.60;;;7.90;99.90;;;;;;4960899;28;20182;-43
2020/12/22 02:33:18;;;;;;;6.00;5.37;;;7.90;99.90;;;;;;4983540;28;20189;-52
2020/12/22 02:35:43;;;;;;;6.90;6.17;;;7.90;99.90;;;;;;4972885;28;20178;-48
2020/12/22 02:38:09;;;;;;;8.33;5.80;;;7.90;99.90;;;;;;4970604;28;20182;-53
2020/12/22 02:40:34;;;;;;;8.03;6.03;;;7.90;99.90;;;;;;4975837;28;23896;-46
2020/12/22 02:43:09;;;;;;;7.03;5.60;;;7.90;99.90;;;;;;4978808;28;20209;-44
2020/12/22 02:45:34;;;;;;;7.97;5.87;;;8.00;99.90;;;;;;4966813;28;20188;-44
2020/12/22 02:48:00;;;;;;;7.90;5.37;;;8.00;99.90;;;;;;4982195;28;20721;-46
2020/12/22 02:50:25;;;;;;;7.60;5.80;;;8.00;99.90;;;;;;4974491;28;20181;-44
2020/12/22 02:52:51;;;;;;;7.43;5.30;;;8.00;99.90;;;;;;4985632;28;20219;-44
2020/12/22 02:55:16;;;;;;;6.23;5.40;;;8.00;99.90;;;;;;4981807;28;20185;-54
2020/12/22 02:57:41;;;;;;;5.70;4.80;;;8.00;99.90;;;;;;4971379;28;20193;-45
2020/12/22 03:00:07;;;;;;;6.20;5.53;;;8.00;99.90;;;;;;4960189;28;20796;-51
2020/12/22 03:02:32;;;;;;;6.77;5.20;;;8.10;99.90;;;;;;4964267;28;20202;-43
2020/12/22 03:04:58;;;;;;;7.07;5.47;;;8.10;99.90;;;;;;4966741;28;20210;-51
2020/12/22 03:07:23;;;;;;;6.47;4.80;;;8.10;99.90;;;;;;4976473;28;20170;-43
2020/12/22 03:09:49;;;;;;;8.07;5.80;;;8.10;99.90;;;;;;4980865;28;20571;-44
2020/12/22 03:12:14;;;;;;;6.83;5.40;;;8.10;99.90;;;;;;4969830;28;20217;-45
2020/12/22 03:14:40;;;;;;;6.80;5.50;;;8.10;99.90;;;;;;4982159;28;20202;-49
2020/12/22 03:17:05;;;;;;;6.80;4.93;;;8.20;99.90;;;;;;4962284;28;20677;-44
2020/12/22 03:19:30;;;;;;;5.40;4.80;;;8.20;99.90;;;;;;4978548;28;20208;-49
2020/12/22 03:21:56;;;;;;;7.60;5.53;;;8.20;99.90;;;;;;4990692;28;20209;-47
2020/12/22 03:24:21;;;;;;;5.40;4.90;;;8.20;99.90;;;;;;4977893;28;20202;-50
2020/12/22 03:26:47;;;;;;;5.40;4.90;;;8.30;99.90;;;;;;4975968;28;20188;-48
2020/12/22 03:29:12;;;;;;;6.87;5.10;;;8.30;99.90;;;;;;4975984;28;20272;-53
2020/12/22 03:31:38;;;;;;;6.93;4.97;;;8.30;99.90;;;;;;4954491;28;20300;-44
2020/12/22 03:34:03;;;;;;;6.33;4.97;;;8.30;99.90;;;;;;4974577;28;20687;-52
2020/12/22 03:36:28;;;;;;;7.40;5.17;;;8.30;99.90;;;;;;4977025;28;20244;-44
2020/12/22 03:38:54;;;;;;;6.87;5.30;;;8.30;99.90;;;;;;4982964;28;20192;-43
2020/12/22 03:41:21;;;;;;;6.30;4.70;;;8.40;99.90;;;;;;4979285;28;20201;-55
2020/12/22 03:43:46;;;;;;;5.23;4.73;;;8.40;99.90;;;;;;4974294;28;20205;-47
2020/12/22 03:46:12;;;;;;;7.43;5.23;;;8.40;99.90;;;;;;4968212;28;20185;-55
2020/12/22 03:48:38;;;;;;;7.50;4.97;;;8.40;99.90;;;;;;4968015;28;20181;-45
2020/12/22 03:51:03;;;;;;;5.43;4.97;;;8.40;99.90;;;;;;4972578;28;20733;-49
2020/12/22 03:53:29;;;;;;;7.70;5.83;;;8.50;99.90;;;;;;4970812;28;20190;-50
2020/12/22 03:55:55;;;;;;;5.80;4.97;;;8.50;99.90;;;;;;4972142;28;20223;-49
2020/12/22 03:58:21;;;;;;;5.80;4.87;;;8.50;99.90;;;;;;4973094;28;20178;-45
2020/12/22 04:00:46;;;;;;;7.30;4.93;;;8.50;99.90;;;;;;4982396;28;20190;-44
2020/12/22 04:03:11;;;;;;;5.40;4.90;;;8.50;99.90;;;;;;4962653;28;20705;-53
2020/12/22 04:05:37;;;;;;;6.87;5.20;;;8.50;99.90;;;;;;4966253;28;20190;-45
2020/12/22 04:08:03;;;;;;;7.27;5.03;;;8.50;99.90;;;;;;4984197;28;20250;-53
2020/12/22 04:10:28;;;;;;;5.47;4.70;;;8.60;99.90;;;;;;4967755;28;20171;-44
2020/12/22 04:12:54;;;;;;;5.57;5.07;;;8.60;99.90;;;;;;4966445;28;20962;-52
2020/12/22 04:15:20;;;;;;;6.17;5.07;;;8.60;99.90;;;;;;4970331;28;20272;-53
2020/12/22 04:17:45;;;;;;;5.13;4.63;;;8.70;99.90;;;;;;4964200;28;20220;-44
2020/12/22 04:20:11;;;;;;;5.70;4.60;;;8.70;99.90;;;;;;4974636;28;20218;-47
2020/12/22 04:22:36;;;;;;;5.37;4.50;;;8.70;99.90;;;;;;4979862;28;20204;-46
2020/12/22 04:25:03;;;;;;;5.63;4.40;;;8.70;99.90;;;;;;4971814;28;20202;-48
2020/12/22 04:27:28;;;;;;;4.70;3.87;;;8.70;99.90;;;;;;4975074;28;20178;-49
2020/12/22 04:29:54;;;;;;;5.53;3.60;;;8.80;99.90;;;;;;4978904;28;20210;-49
2020/12/22 04:32:19;;;;;;;3.83;3.40;;;8.80;99.90;;;;;;4963068;28;20208;-46
2020/12/22 04:34:45;;;;;;;3.90;3.20;;;8.80;99.90;;;;;;4979721;28;20635;-45
2020/12/22 04:37:11;;;;;;;3.93;3.53;;;8.90;99.90;;;;;;4975115;28;20648;-45
2020/12/22 04:39:36;;;;;;;10.47;4.70;;;8.90;99.90;;;;;;4969144;28;20409;-47
2020/12/22 04:42:03;;;;;;;3.37;3.00;;;9.00;99.90;;;;;;4976956;28;20205;-44
2020/12/22 04:44:28;;;;;;;6.87;5.63;;;9.00;99.90;;;;;;4970626;28;20241;-44
2020/12/22 04:46:54;;;;;;;3.83;2.77;;;9.00;99.90;;;;;;4985882;28;20684;-49
2020/12/22 04:49:25;;;;;;;2.50;2.30;;;9.10;99.90;;;;;;4957010;28;20190;-49
2020/12/22 04:51:52;;;;;;;4.23;2.50;;;9.10;99.90;;;;;;4969442;28;20205;-46
2020/12/22 04:54:19;;;;;;;2.53;2.23;;;9.10;99.90;;;;;;4967932;28;20178;-43
2020/12/22 04:56:46;;;;;;;4.13;2.50;;;9.20;99.90;;;;;;4984465;28;20269;-42
2020/12/22 04:59:14;;;;;;;2.43;1.87;;;9.20;99.90;;;;;;4972375;28;20186;-54
2020/12/22 05:01:43;;;;;;;1.30;1.20;;;9.20;99.90;;;;;;4964317;28;20208;-43
2020/12/22 05:04:11;;;;;;;2.33;1.83;;;9.30;99.90;;;;;;4954475;28;20233;-45
2020/12/22 05:06:36;;;;;;;2.13;1.40;;;9.30;99.90;;;;;;4976234;28;20305;-44
2020/12/22 05:09:02;;;;;;;5.57;1.97;;;9.40;99.90;;;;;;4977068;28;20281;-52
2020/12/22 05:11:28;;;;;;;2.20;1.03;;;9.40;99.90;;;;;;4962158;28;20799;-46
2020/12/22 05:13:53;;;;;;;0.67;0.67;;;9.50;99.90;;;;;;4974259;28;20177;-48
2020/12/22 05:16:26;;;;;;;2.70;1.63;;;9.60;99.90;;;;;;4972076;28;20607;-51
2020/12/22 05:18:54;;;;;;;4.83;1.70;;;9.60;99.90;;;;;;4958472;28;20663;-45
2020/12/22 05:21:20;;;;;;;2.30;1.60;;;9.70;99.90;;;;;;4958063;28;20197;-55
2020/12/22 05:23:48;;;;;;;0.83;0.83;;;9.80;99.90;;;;;;4969822;28;20222;-49
2020/12/22 05:26:13;;;;;;;5.00;2.30;;;9.80;99.90;;;;;;4975309;28;20185;-45
2020/12/22 05:28:39;;;;;;;4.20;2.17;;;9.80;99.90;;;;;;4988490;28;20181;-48
2020/12/22 05:31:13;;;;;;;3.60;1.93;;;9.90;99.90;;;;;;4972768;28;20261;-45
2020/12/22 05:33:47;;;;;;;3.10;2.00;;;9.90;99.90;;;;;;4977520;28;20347;-47
2020/12/22 05:36:13;;;;;;;12.93;5.17;;;10.00;99.90;;;;;;4959689;28;20201;-45
2020/12/22 05:38:42;;;;;;;9.93;4.17;;;10.00;99.90;;;;;;4978472;28;20190;-44
2020/12/22 05:41:08;;;;;;;7.07;4.37;;;10.10;99.90;;;;;;4978190;28;20188;-50
2020/12/22 05:43:42;;;;;;;6.17;3.30;;;10.10;99.90;;;;;;4975306;28;20445;-46
2020/12/22 05:46:10;;;;;;;8.50;3.40;;;10.20;99.90;;;;;;4971566;28;20591;-52
2020/12/22 05:48:36;;;;;;;4.93;3.30;;;10.30;99.90;;;;;;4979750;28;20847;-50
2020/12/22 05:51:06;;;;;;;3.80;3.40;;;10.30;99.90;;;;;;4969645;28;20197;-52
2020/12/22 05:53:32;;;;;;;10.07;5.00;;;10.40;99.90;;;;;;4971284;28;20228;-47
2020/12/22 05:56:16;;;;;;;7.77;5.00;;;10.40;99.90;;;;;;4982763;28;20653;-47
2020/12/22 05:58:42;;;;;;;6.90;5.00;;;10.50;99.90;;;;;;4991874;28;20169;-50
2020/12/22 06:01:11;;;;;;;14.07;7.40;;;10.50;99.90;;;;;;4971583;28;20276;-43
2020/12/22 06:03:37;;;;;;;9.00;5.93;;;10.60;99.90;;;;;;4983977;28;20206;-45
2020/12/22 06:06:03;;;;;;;13.83;8.10;;;10.70;99.90;;;;;;4971643;28;20212;-43
2020/12/22 06:08:29;;;;;;;11.40;8.40;;;10.70;99.90;;;;;;4985062;28;20189;-49
2020/12/22 06:10:55;;;;;;;10.53;7.20;;;10.80;99.90;;;;;;4974871;28;20196;-49
2020/12/22 06:13:21;;;;;;;12.40;7.60;;;10.90;99.90;;;;;;4966634;28;20257;-49
2020/12/22 06:15:46;;;;;;;15.20;7.77;;;10.90;99.90;;;;;;4984248;28;20593;-47
2020/12/22 06:18:13;;;;;;;9.77;7.77;;;11.00;99.90;;;;;;4976648;28;20204;-46
2020/12/22 06:20:38;;;;;;;7.67;6.47;;;11.00;99.90;;;;;;4978007;28;20181;-50
2020/12/22 06:23:05;;;;;;;14.50;8.03;;;11.00;99.90;;;;;;4957642;28;20253;-48
2020/12/22 06:25:35;;;;;;;9.87;8.17;;;11.10;99.90;;;;;;4981469;28;20201;-46
2020/12/22 06:28:01;;;;;;;12.40;7.37;;;11.10;99.90;;;;;;4980358;28;20174;-44
2020/12/22 06:30:38;;;;;;;10.80;7.70;;;11.20;99.90;;;;;;4965871;28;20853;-42
2020/12/22 06:33:26;;;;;;;10.60;7.60;;;11.20;99.90;;;;;;4979689;28;20197;-47
2020/12/22 06:36:13;;;;;;;8.93;7.07;;;11.20;99.90;;;;;;4969582;28;20198;-48
2020/12/22 06:38:53;;;;;;;6.73;6.03;;;11.30;99.90;;;;;;4959633;28;20197;-49
2020/12/22 06:41:43;;;;;;;6.30;5.70;;;11.30;99.90;;;;;;4978540;28;20211;-48
2020/12/22 06:44:14;;;;;;;13.17;8.27;;;11.40;99.90;;;;;;4965745;28;20225;-47
2020/12/22 06:46:42;;;;;;;7.70;6.50;;;11.40;99.90;;;;;;4967337;28;20178;-47
2020/12/22 06:49:08;;;;;;;6.93;5.00;;;11.40;99.90;;;;;;4976699;28;20596;-43
2020/12/22 06:51:36;;;;;;;5.87;5.23;;;11.50;99.90;;;;;;4972266;28;20213;-48
2020/12/22 06:54:03;;;;;;;5.93;5.43;;;11.50;99.90;;;;;;4965117;28;20189;-47
2020/12/22 06:56:41;;;;;;;5.13;4.63;;;11.50;99.90;;;;;;4979788;28;20205;-52
2020/12/22 06:59:33;;;;;;;5.87;5.27;;;11.50;99.90;;;;;;4983148;28;20300;-48
2020/12/22 07:01:59;;;;;;;6.20;5.20;;;11.60;99.90;;;;;;4972217;28;20252;-45
2020/12/22 07:04:25;;;;;;;4.87;4.47;;;11.60;99.90;;;;;;4969353;28;23596;-50
2020/12/22 07:06:52;;;;;;;6.87;5.20;;;11.70;99.90;;;;;;4975859;28;20182;-49
2020/12/22 07:09:23;;;;;;;5.60;4.53;;;11.70;99.90;;;;;;4960162;28;20192;-48
2020/12/22 07:11:51;;;;;;;4.40;4.00;;;11.70;99.90;;;;;;4982375;28;20213;-48
2020/12/22 07:14:18;;;;;;;6.77;4.70;;;11.70;99.90;;;;;;4981324;28;20204;-48
2020/12/22 07:16:55;;;;;;;11.20;6.00;;;11.70;99.90;;;;;;4973788;28;20188;-44
2020/12/22 07:19:28;;;;;;;5.30;4.20;;;11.70;99.90;;;;;;4968655;28;20189;-51
2020/12/22 07:21:54;;;;;;;4.20;3.90;;;11.80;99.90;;;;;;4965124;28;20862;-48
2020/12/22 07:24:20;;;;;;;3.57;3.27;;;11.80;99.90;;;;;;4955593;28;20604;-47
2020/12/22 07:26:46;;;;;;;3.17;2.80;;;11.80;99.90;;;;;;4971422;28;20276;-45
2020/12/22 07:29:12;;;;;;;4.97;2.70;;;11.80;99.90;;;;;;4978149;28;20166;-48
2020/12/22 07:31:38;;;;;;;6.20;3.00;;;11.80;99.90;;;;;;4966182;28;20276;-45
2020/12/22 07:34:05;;;;;;;2.80;2.60;;;11.80;99.90;;;;;;4973628;28;20329;-47
2020/12/22 07:36:31;;;;;;;3.33;2.27;;;11.90;99.90;;;;;;4967000;28;20185;-51
2020/12/22 07:39:33;;;;;;;2.70;2.50;;;11.90;99.90;;;;;;4959131;28;20280;-51
2020/12/22 07:42:10;;;;;;;2.40;2.20;;;11.90;99.90;;;;;;4938187;28;21085;-48
2020/12/22 07:44:36;;;;;;;1.80;1.70;;;11.90;99.90;;;;;;4970815;28;20613;-49
2020/12/22 07:47:02;;;;;;;1.20;1.10;;;11.90;99.90;;;;;;4981090;28;20166;-45
2020/12/22 07:49:28;;;;;;;1.53;1.40;;;11.90;99.90;;;;;;4984108;28;20189;-44
2020/12/22 07:51:53;;;;;;;1.43;1.33;;;11.90;99.90;;;;;;4973038;28;20959;-51
2020/12/22 07:54:18;;;;;;;3.63;1.40;;;11.90;99.90;;;;;;4964846;28;20216;-42
2020/12/22 07:56:45;;;;;;;2.30;1.40;;;11.90;99.90;;;;;;4974864;28;20288;-55
2020/12/22 07:59:12;;;;;;;2.10;1.60;;;11.90;99.90;;;;;;4980843;28;20353;-52
2020/12/22 08:01:43;;;;;;;1.47;1.37;;;11.90;99.90;;;;;;4980880;28;20205;-53
2020/12/22 08:04:23;;;;;;;1.23;1.13;;;11.90;99.90;;;;;;4983785;28;20480;-47
2020/12/22 08:07:00;;;;;;;1.90;1.00;;;11.90;99.90;;;;;;4958807;28;20233;-54
2020/12/22 08:09:27;;;;;;;0.90;0.90;;;11.90;99.90;;;;;;4962833;28;20213;-49
2020/12/22 08:11:53;;;;;;;2.90;0.97;;;11.90;99.90;;;;;;4974404;28;20712;-55
2020/12/22 08:14:21;;;;;;;1.23;1.13;;;11.90;99.90;;;;;;4976529;28;20206;-46
2020/12/22 08:16:48;;;;;;;0.90;0.90;;;11.90;99.90;;;;;;4973285;28;20177;-56
2020/12/22 08:19:14;;;;;;;1.00;0.87;;;11.90;99.90;;;;;;4984256;28;20190;-45
2020/12/22 08:21:40;;;;;;;1.40;1.30;;;11.90;99.90;;;;;;4957086;28;20205;-47
2020/12/22 08:24:06;;;;;;;1.20;1.10;;;11.90;99.90;;;;;;4946956;28;20704;-50
2020/12/22 08:26:31;;;;;;;1.40;1.00;;;11.90;99.90;;;;;;4961426;28;21770;-49
2020/12/22 08:28:57;;;;;;;1.67;1.03;;;11.90;99.90;;;;;;4979124;28;20594;-53
2020/12/22 08:31:25;;;;;;;0.73;0.73;;;11.90;99.90;;;;;;4973942;28;20208;-47
2020/12/22 08:33:59;;;;;;;1.97;0.70;;;12.00;99.90;;;;;;4971294;28;20181;-48
2020/12/22 08:36:29;;;;;;;0.67;0.60;;;12.00;99.90;;;;;;4967986;28;20862;-46
2020/12/22 08:39:33;;;;;;;0.50;0.50;;;11.90;99.90;;;;;;4967520;28;20277;-48
2020/12/22 08:42:07;;;;;;;2.03;0.80;;;12.00;99.90;;;;;;4956891;28;20237;-47
2020/12/22 08:44:32;;;;;;;1.07;0.60;;;11.90;99.90;;;;;;4973233;28;20225;-49
2020/12/22 08:47:10;;;;;;;2.57;0.70;;;11.90;99.90;;;;;;4983754;28;20700;-47
2020/12/22 08:49:35;;;;;;;2.80;1.07;;;11.90;99.90;;;;;;4981766;28;20182;-47
2020/12/22 08:52:19;;;;;;;1.73;1.03;;;11.90;99.90;;;;;;4978988;28;20201;-45
2020/12/22 08:54:46;;;;;;;0.80;0.80;;;11.90;99.90;;;;;;4976620;28;20323;-50
2020/12/22 08:57:18;;;;;;;6.40;1.70;;;12.00;99.90;;;;;;4958674;28;20855;-46
2020/12/22 08:59:45;;;;;;;3.63;1.03;;;12.00;99.90;;;;;;4980675;28;20184;-45
2020/12/22 09:02:29;;;;;;;1.20;1.10;;;12.00;99.90;;;;;;4974208;28;20213;-53
2020/12/22 09:04:55;;;;;;;1.80;0.90;;;12.00;99.90;;;;;;4976091;28;20263;-43
2020/12/22 09:07:26;;;;;;;0.80;0.80;;;12.00;99.90;;;;;;4964546;28;20174;-46
2020/12/22 09:10:07;;;;;;;0.70;0.70;;;12.00;99.90;;;;;;4964068;28;20522;-48
2020/12/22 09:12:33;;;;;;;0.70;0.70;;;12.00;99.90;;;;;;4957803;28;20225;-49
2020/12/22 09:15:01;;;;;;;1.30;1.07;;;12.00;99.90;;;;;;4978882;28;20180;-49
2020/12/22 09:17:34;;;;;;;1.03;1.00;;;11.90;99.90;;;;;;4967296;28;20181;-51
2020/12/22 09:20:00;;;;;;;1.70;1.40;;;12.00;99.90;;;;;;4971607;28;20190;-45
2020/12/22 09:22:28;;;;;;;1.83;0.87;;;11.90;99.90;;;;;;4968072;28;20980;-46
2020/12/22 09:24:55;;;;;;;1.13;0.80;;;12.00;99.90;;;;;;4971208;28;20218;-47
2020/12/22 09:27:30;;;;;;;3.77;1.00;;;12.00;99.90;;;;;;4951940;28;20281;-49
2020/12/22 09:29:56;;;;;;;1.40;1.10;;;12.00;99.90;;;;;;4967441;28;20177;-49
2020/12/22 09:32:22;;;;;;;0.90;0.80;;;12.00;99.90;;;;;;4963623;28;20561;-48
2020/12/22 09:34:48;;;;;;;0.73;0.73;;;12.00;99.90;;;;;;4983001;28;20181;-46
2020/12/22 09:37:13;;;;;;;0.80;0.73;;;12.00;99.90;;;;;;4968855;28;20182;-48
2020/12/22 09:39:40;;;;;;;1.77;0.77;;;12.00;99.90;;;;;;4973053;28;20177;-48
2020/12/22 09:42:06;;;;;;;1.10;0.40;;;12.00;99.90;;;;;;4956895;28;20221;-47
2020/12/22 09:44:32;;;;;;;0.83;0.70;;;12.00;99.90;;;;;;4969564;28;20213;-52
2020/12/22 09:46:58;;;;;;;0.40;0.40;;;12.00;99.90;;;;;;4978593;28;20182;-50
2020/12/22 09:49:25;;;;;;;1.50;0.50;;;12.00;99.90;;;;;;4963790;28;20189;-48
2020/12/22 09:51:51;;;;;;;2.77;0.70;;;12.00;99.90;;;;;;4982222;28;20205;-46
2020/12/22 09:54:17;;;;;;;1.50;0.50;;;12.00;99.90;;;;;;4981755;28;20217;-51
2020/12/22 09:56:42;;;;;;;0.40;0.40;;;12.00;99.90;;;;;;4976696;28;20212;-45
2020/12/22 09:59:08;;;;;;;0.30;0.30;;;12.00;99.90;;;;;;4963786;28;20189;-49
2020/12/22 10:01:34;;;;;;;0.27;0.27;;;12.00;99.90;;;;;;4977450;28;20289;-45
2020/12/22 10:03:59;;;;;;;1.10;0.50;;;12.00;99.90;;;;;;4980043;28;20230;-48
2020/12/22 10:06:26;;;;;;;0.30;0.10;;;12.00;99.90;;;;;;4965161;28;20178;-47
2020/12/22 10:08:53;;;;;;;0.50;0.50;;;12.00;99.90;;;;;;4974287;28;20416;-46
2020/12/22 10:11:19;;;;;;;0.37;0.27;;;12.20;99.90;;;;;;4978222;28;20215;-51
2020/12/22 10:13:46;;;;;;;0.60;0.17;;;12.10;99.90;;;;;;4959678;28;20221;-52
2020/12/22 10:16:22;;;;;;;0.50;0.20;;;12.10;99.90;;;;;;4975896;28;20197;-46
2020/12/22 10:18:48;;;;;;;0.27;0.20;;;12.00;99.90;;;;;;4971034;28;20229;-50
2020/12/22 10:21:16;;;;;;;0.30;0.30;;;12.00;99.90;;;;;;4986994;28;20181;-45
2020/12/22 10:23:42;;;;;;;0.47;0.47;;;12.00;99.90;;;;;;4973529;28;20182;-48
2020/12/22 10:26:10;;;;;;;0.23;0.23;;;11.90;99.90;;;;;;4982517;28;20220;-48
2020/12/22 10:28:38;;;;;;;1.17;0.87;;;11.90;99.90;;;;;;4979744;28;20190;-47
2020/12/22 10:31:04;;;;;;;0.70;0.50;;;11.90;99.90;;;;;;4975075;28;20182;-49
2020/12/22 10:33:30;;;;;;;0.37;0.30;;;11.80;99.90;;;;;;4988616;28;20552;-43
2020/12/22 10:35:55;;;;;;;0.43;0.40;;;11.80;99.90;;;;;;4971949;28;20205;-48
2020/12/22 10:38:21;;;;;;;0.57;0.37;;;11.80;99.90;;;;;;4971871;28;20186;-43
2020/12/22 10:40:47;;;;;;;0.80;0.40;;;11.70;99.90;;;;;;4971151;28;20193;-50
2020/12/22 10:43:13;;;;;;;1.07;0.30;;;11.70;99.90;;;;;;4989790;28;20666;-43
2020/12/22 10:45:39;;;;;;;1.17;0.50;;;11.60;99.90;;;;;;4957440;28;20992;-45
2020/12/22 10:48:06;;;;;;;0.47;0.47;;;11.50;99.90;;;;;;4983646;28;20185;-49
2020/12/22 10:50:32;;;;;;;1.10;0.60;;;11.40;99.90;;;;;;4967129;28;20185;-46
2020/12/22 10:52:57;;;;;;;0.93;0.40;;;11.40;99.90;;;;;;4984848;28;20201;-49
2020/12/22 10:55:23;;;;;;;0.83;0.60;;;11.30;99.90;;;;;;4978631;28;20441;-45
2020/12/22 10:57:52;;;;;;;0.60;0.60;;;11.10;99.90;;;;;;4979198;28;20493;-48
2020/12/22 11:00:18;;;;;;;1.57;0.80;;;11.00;99.90;;;;;;4972105;28;20217;-53
2020/12/22 11:02:48;;;;;;;0.90;0.83;;;10.90;99.90;;;;;;4969478;28;20236;-45
2020/12/22 11:05:13;;;;;;;2.20;1.30;;;10.80;99.90;;;;;;4969466;28;20205;-47
2020/12/22 11:07:50;;;;;;;1.67;1.53;;;10.70;99.90;;;;;;4982810;28;20243;-45
2020/12/22 11:10:15;;;;;;;2.60;2.27;;;10.70;99.90;;;;;;4985937;28;20260;-52
2020/12/22 11:12:41;;;;;;;2.83;2.60;;;10.60;99.90;;;;;;4973280;28;20308;-44
2020/12/22 11:15:07;;;;;;;2.70;2.50;;;10.50;99.90;;;;;;4982493;28;20213;-47
2020/12/22 11:17:33;;;;;;;2.67;2.47;;;10.50;99.90;;;;;;4957284;28;20185;-50
2020/12/22 11:19:58;;;;;;;5.37;3.30;;;10.40;99.90;;;;;;4987030;28;20198;-48
2020/12/22 11:22:24;;;;;;;3.70;3.40;;;10.40;99.90;;;;;;4983820;28;20243;-46
2020/12/22 11:24:49;;;;;;;7.40;4.37;;;10.30;99.90;;;;;;4977668;28;20209;-48
2020/12/22 11:27:15;;;;;;;5.50;3.83;;;10.30;99.90;;;;;;4984747;28;20185;-46
2020/12/22 11:29:40;;;;;;;6.47;3.73;;;10.30;99.90;;;;;;4982570;28;20189;-50
2020/12/22 11:32:06;;;;;;;6.03;3.43;;;10.30;99.90;;;;;;4972022;28;20244;-53
2020/12/22 11:34:32;;;;;;;4.53;3.17;;;10.20;99.90;;;;;;4979354;28;20193;-47
2020/12/22 11:36:57;;;;;;;5.97;2.93;;;10.20;99.90;;;;;;4985293;28;20177;-51
2020/12/22 11:39:23;;;;;;;7.33;3.30;;;10.20;99.90;;;;;;4984751;28;20186;-46
2020/12/22 11:41:49;;;;;;;9.80;3.03;;;10.10;99.90;;;;;;4987572;28;20195;-48
2020/12/22 11:44:14;;;;;;;9.97;4.07;;;10.10;99.90;;;;;;4975444;28;20783;-46
2020/12/22 11:46:44;;;;;;;9.57;3.20;;;10.10;99.90;;;;;;4956862;28;20193;-50
2020/12/22 11:49:10;;;;;;;5.10;3.57;;;10.10;99.90;;;;;;4984298;28;20170;-50
2020/12/22 11:51:36;;;;;;;10.70;4.30;;;10.10;99.90;;;;;;4964249;28;20345;-48
2020/12/22 11:54:02;;;;;;;9.00;4.10;;;10.00;99.90;;;;;;4986909;28;20577;-47
2020/12/22 11:56:27;;;;;;;9.03;4.20;;;10.00;99.90;;;;;;4974811;28;20185;-52
2020/12/22 11:58:52;;;;;;;5.63;4.00;;;10.00;99.90;;;;;;4972327;28;20181;-45
2020/12/22 12:01:28;;;;;;;10.07;3.70;;;10.00;99.90;;;;;;4975912;28;20210;-53
2020/12/22 12:03:54;;;;;;;8.57;2.80;;;9.90;99.90;;;;;;4961245;28;20209;-49
2020/12/22 12:06:20;;;;;;;6.57;2.80;;;9.90;99.90;;;;;;4979669;28;20178;-50
2020/12/22 12:08:46;;;;;;;6.33;2.57;;;9.90;99.90;;;;;;4975358;28;20182;-50
2020/12/22 12:11:11;;;;;;;7.47;2.37;;;9.90;99.90;;;;;;4965583;28;20200;-50
2020/12/22 12:13:37;;;;;;;9.20;2.27;;;9.80;99.90;;;;;;4969662;28;20169;-46
2020/12/22 12:16:04;;;;;;;7.37;2.33;;;9.80;99.90;;;;;;4974609;28;20650;-46
2020/12/22 12:18:29;;;;;;;6.97;2.10;;;9.80;99.90;;;;;;4957645;28;20186;-50
2020/12/22 12:20:55;;;;;;;8.47;2.10;;;9.80;99.90;;;;;;4974498;28;20181;-47
2020/12/22 12:23:20;;;;;;;4.83;1.80;;;9.80;99.90;;;;;;4971887;28;20212;-50
2020/12/22 12:25:46;;;;;;;6.63;1.77;;;9.80;99.90;;;;;;4979495;28;20245;-47
2020/12/22 12:28:11;;;;;;;4.23;1.37;;;9.90;99.90;;;;;;4970621;28;20185;-51
2020/12/22 12:30:36;;;;;;;6.10;1.73;;;9.90;99.90;;;;;;4966888;28;20906;-47
2020/12/22 12:33:02;;;;;;;4.83;1.07;;;9.90;99.90;;;;;;4978041;28;20296;-44
2020/12/22 12:35:28;;;;;;;4.57;1.10;;;9.80;99.90;;;;;;4960576;28;20197;-47
2020/12/22 12:37:54;;;;;;;5.67;1.17;;;9.80;99.90;;;;;;4970756;28;20181;-44
2020/12/22 12:40:19;;;;;;;5.13;1.33;;;9.80;99.90;;;;;;4975485;28;20193;-48
2020/12/22 12:42:45;;;;;;;6.13;1.30;;;9.70;99.90;;;;;;4979133;28;20211;-47
2020/12/22 12:45:13;;;;;;;3.23;1.23;;;9.80;99.90;;;;;;4969656;28;20690;-51
2020/12/22 12:47:40;;;;;;;3.03;0.90;;;9.70;99.90;;;;;;4972342;28;20181;-48
2020/12/22 12:50:05;;;;;;;3.13;0.90;;;9.80;99.90;;;;;;4963823;28;20252;-51
2020/12/22 12:52:31;;;;;;;6.27;1.00;;;9.70;99.90;;;;;;4977100;28;20213;-49